sensor_id;sensor_type;location;lat;lon;timestamp;temperature;humidity
22319;DHT22;11327;52.334;9.506;2023-08-01T00:01:54;17.10;99.90
22319;DHT22;11327;52.334;9.506;2023-08-01T00:05:15;17.10;99.90
22319;DHT22;11327;52.334;9.506;2023-08-01T00:08:36;17.10;99.90
22319;DHT22;11327;52.334;9.506;2023-08-01T00:11:57;17.20;99.90
22319;DHT22;11327;52.334;9.506;2023-08-01T00:15:17;17.20;99.90
22319;DHT22;11327;52.334;9.506;2023-08-01T00:18:38;17.20;99.90
22319;DHT22;11327;52.334;9.506;2023-08-01T00:21:59;17.20;99.90
22319;DHT22;11327;52.334;9.506;2023-08-01T00:25:19;17.20;99.90
22319;DHT22;11327;52.334;9.506;2023-08-01T00:28:40;17.10;99.90
22319;DHT22;11327;52.334;9.506;2023-08-01T00:32:01;17.10;99.90
22319;DHT22;11327;52.334;9.506;2023-08-01T00:35:21;17.20;99.90
22319;DHT22;11327;52.334;9.506;2023-08-01T00:38:42;17.10;99.90
22319;DHT22;11327;52.334;9.506;2023-08-01T00:42:04;17.20;99.90
22319;DHT22;11327;52.334;9.506;2023-08-01T00:45:26;17.20;99.90
22319;DHT22;11327;52.334;9.506;2023-08-01T00:48:47;17.10;99.90
22319;DHT22;11327;52.334;9.506;2023-08-01T00:52:08;17.10;99.90
22319;DHT22;11327;52.334;9.506;2023-08-01T00:55:30;17.10;99.90
22319;DHT22;11327;52.334;9.506;2023-08-01T00:58:52;17.10;99.90
22319;DHT22;11327;52.334;9.506;2023-08-01T01:02:13;17.10;99.90
22319;DHT22;11327;52.334;9.506;2023-08-01T01:05:39;17.10;99.90
22319;DHT22;11327;52.334;9.506;2023-08-01T01:09:00;17.10;99.90
22319;DHT22;11327;52.334;9.506;2023-08-01T01:12:21;17.10;99.90
22319;DHT22;11327;52.334;9.506;2023-08-01T01:15:42;17.10;99.90
22319;DHT22;11327;52.334;9.506;2023-08-01T01:19:06;17.10;99.90
22319;DHT22;11327;52.334;9.506;2023-08-01T01:22:27;17.20;99.90
22319;DHT22;11327;52.334;9.506;2023-08-01T01:25:50;17.10;99.90
22319;DHT22;11327;52.334;9.506;2023-08-01T01:29:13;17.10;99.90
22319;DHT22;11327;52.334;9.506;2023-08-01T01:32:34;17.00;99.90
22319;DHT22;11327;52.334;9.506;2023-08-01T01:35:54;17.20;99.90
22319;DHT22;11327;52.334;9.506;2023-08-01T01:39:15;17.20;99.90
22319;DHT22;11327;52.334;9.506;2023-08-01T01:42:36;17.30;99.90
22319;DHT22;11327;52.334;9.506;2023-08-01T01:45:57;17.20;99.90
22319;DHT22;11327;52.334;9.506;2023-08-01T01:49:18;17.10;99.90
22319;DHT22;11327;52.334;9.506;2023-08-01T01:52:39;17.20;99.90
22319;DHT22;11327;52.334;9.506;2023-08-01T01:55:59;17.20;99.90
22319;DHT22;11327;52.334;9.506;2023-08-01T01:59:20;17.20;99.90
22319;DHT22;11327;52.334;9.506;2023-08-01T02:02:41;17.10;99.90
22319;DHT22;11327;52.334;9.506;2023-08-01T02:06:02;17.10;99.90
22319;DHT22;11327;52.334;9.506;2023-08-01T02:09:26;17.10;99.90
22319;DHT22;11327;52.334;9.506;2023-08-01T02:12:47;17.10;99.90
22319;DHT22;11327;52.334;9.506;2023-08-01T02:16:08;17.10;99.90
22319;DHT22;11327;52.334;9.506;2023-08-01T02:19:28;17.10;99.90
22319;DHT22;11327;52.334;9.506;2023-08-01T02:22:49;17.10;99.90
22319;DHT22;11327;52.334;9.506;2023-08-01T02:26:10;17.00;99.90
22319;DHT22;11327;52.334;9.506;2023-08-01T02:29:30;17.00;99.90
22319;DHT22;11327;52.334;9.506;2023-08-01T02:32:51;17.00;99.90
22319;DHT22;11327;52.334;9.506;2023-08-01T02:36:12;16.90;99.90
22319;DHT22;11327;52.334;9.506;2023-08-01T02:39:32;16.80;99.90
22319;DHT22;11327;52.334;9.506;2023-08-01T02:42:53;16.80;99.90
22319;DHT22;11327;52.334;9.506;2023-08-01T02:46:14;16.70;99.90
22319;DHT22;11327;52.334;9.506;2023-08-01T02:49:34;16.70;99.90
22319;DHT22;11327;52.334;9.506;2023-08-01T02:52:55;16.60;99.90
22319;DHT22;11327;52.334;9.506;2023-08-01T02:56:16;16.70;99.90
22319;DHT22;11327;52.334;9.506;2023-08-01T02:59:36;16.70;99.90
22319;DHT22;11327;52.334;9.506;2023-08-01T03:02:57;16.70;99.90
22319;DHT22;11327;52.334;9.506;2023-08-01T03:06:18;16.70;99.90
22319;DHT22;11327;52.334;9.506;2023-08-01T03:09:39;16.70;99.90
22319;DHT22;11327;52.334;9.506;2023-08-01T03:12:59;16.70;99.90
22319;DHT22;11327;52.334;9.506;2023-08-01T03:16:21;16.70;99.90
22319;DHT22;11327;52.334;9.506;2023-08-01T03:19:42;16.70;99.90
22319;DHT22;11327;52.334;9.506;2023-08-01T03:23:03;16.70;99.90
22319;DHT22;11327;52.334;9.506;2023-08-01T03:26:24;16.60;99.90
22319;DHT22;11327;52.334;9.506;2023-08-01T03:29:44;16.60;99.90
22319;DHT22;11327;52.334;9.506;2023-08-01T03:33:05;16.70;99.90
22319;DHT22;11327;52.334;9.506;2023-08-01T03:36:26;16.60;99.90
22319;DHT22;11327;52.334;9.506;2023-08-01T03:39:47;16.70;99.90
22319;DHT22;11327;52.334;9.506;2023-08-01T03:43:08;16.60;99.90
22319;DHT22;11327;52.334;9.506;2023-08-01T03:46:30;16.60;99.90
22319;DHT22;11327;52.334;9.506;2023-08-01T03:49:51;16.60;99.90
22319;DHT22;11327;52.334;9.506;2023-08-01T03:53:11;16.60;99.90
22319;DHT22;11327;52.334;9.506;2023-08-01T03:56:32;16.60;99.90
22319;DHT22;11327;52.334;9.506;2023-08-01T03:59:53;16.60;99.90
22319;DHT22;11327;52.334;9.506;2023-08-01T04:03:14;16.70;99.90
22319;DHT22;11327;52.334;9.506;2023-08-01T04:06:34;16.50;99.90
22319;DHT22;11327;52.334;9.506;2023-08-01T04:09:55;16.60;99.90
22319;DHT22;11327;52.334;9.506;2023-08-01T04:13:16;16.50;99.90
22319;DHT22;11327;52.334;9.506;2023-08-01T04:16:36;16.50;99.90
22319;DHT22;11327;52.334;9.506;2023-08-01T04:19:57;16.50;99.90
22319;DHT22;11327;52.334;9.506;2023-08-01T04:23:18;16.50;99.90
22319;DHT22;11327;52.334;9.506;2023-08-01T04:26:38;16.40;99.90
22319;DHT22;11327;52.334;9.506;2023-08-01T04:30:00;16.50;99.90
22319;DHT22;11327;52.334;9.506;2023-08-01T04:33:21;16.50;99.90
22319;DHT22;11327;52.334;9.506;2023-08-01T04:36:41;16.60;99.90
22319;DHT22;11327;52.334;9.506;2023-08-01T04:40:02;16.50;99.90
22319;DHT22;11327;52.334;9.506;2023-08-01T04:43:23;16.40;99.90
22319;DHT22;11327;52.334;9.506;2023-08-01T04:46:44;16.40;99.90
22319;DHT22;11327;52.334;9.506;2023-08-01T04:50:05;16.50;99.90
22319;DHT22;11327;52.334;9.506;2023-08-01T04:53:26;16.40;99.90
22319;DHT22;11327;52.334;9.506;2023-08-01T04:56:47;16.40;99.90
22319;DHT22;11327;52.334;9.506;2023-08-01T05:00:09;16.40;99.90
22319;DHT22;11327;52.334;9.506;2023-08-01T05:03:30;16.40;99.90
22319;DHT22;11327;52.334;9.506;2023-08-01T05:06:51;16.50;99.90
22319;DHT22;11327;52.334;9.506;2023-08-01T05:10:11;16.40;99.90
22319;DHT22;11327;52.334;9.506;2023-08-01T05:13:32;16.40;99.90
22319;DHT22;11327;52.334;9.506;2023-08-01T05:16:53;16.40;99.90
22319;DHT22;11327;52.334;9.506;2023-08-01T05:20:14;16.50;99.90
22319;DHT22;11327;52.334;9.506;2023-08-01T05:23:34;16.40;99.90
22319;DHT22;11327;52.334;9.506;2023-08-01T05:26:55;16.40;99.90
22319;DHT22;11327;52.334;9.506;2023-08-01T05:30:16;16.40;99.90
22319;DHT22;11327;52.334;9.506;2023-08-01T05:33:36;16.40;99.90
22319;DHT22;11327;52.334;9.506;2023-08-01T05:36:57;16.50;99.90
22319;DHT22;11327;52.334;9.506;2023-08-01T05:40:18;16.40;99.90
22319;DHT22;11327;52.334;9.506;2023-08-01T05:43:38;16.50;99.90
22319;DHT22;11327;52.334;9.506;2023-08-01T05:46:59;16.50;99.90
22319;DHT22;11327;52.334;9.506;2023-08-01T05:50:20;16.50;99.90
22319;DHT22;11327;52.334;9.506;2023-08-01T05:53:41;16.50;99.90
22319;DHT22;11327;52.334;9.506;2023-08-01T05:57:02;16.60;99.90
22319;DHT22;11327;52.334;9.506;2023-08-01T06:00:22;16.60;99.90
22319;DHT22;11327;52.334;9.506;2023-08-01T06:03:43;16.60;99.90
22319;DHT22;11327;52.334;9.506;2023-08-01T06:07:04;16.50;99.90
22319;DHT22;11327;52.334;9.506;2023-08-01T06:10:25;16.50;99.90
22319;DHT22;11327;52.334;9.506;2023-08-01T06:13:46;16.40;99.90
22319;DHT22;11327;52.334;9.506;2023-08-01T06:17:07;16.40;99.90
22319;DHT22;11327;52.334;9.506;2023-08-01T06:20:28;16.40;99.90
22319;DHT22;11327;52.334;9.506;2023-08-01T06:23:49;16.40;99.90
22319;DHT22;11327;52.334;9.506;2023-08-01T06:27:09;16.40;99.90
22319;DHT22;11327;52.334;9.506;2023-08-01T06:30:30;16.40;99.90
22319;DHT22;11327;52.334;9.506;2023-08-01T06:33:51;16.40;99.90
22319;DHT22;11327;52.334;9.506;2023-08-01T06:37:12;16.40;99.90
22319;DHT22;11327;52.334;9.506;2023-08-01T06:40:32;16.40;99.90
22319;DHT22;11327;52.334;9.506;2023-08-01T06:43:53;16.50;99.90
22319;DHT22;11327;52.334;9.506;2023-08-01T06:47:14;16.50;99.90
22319;DHT22;11327;52.334;9.506;2023-08-01T06:50:34;16.50;99.90
22319;DHT22;11327;52.334;9.506;2023-08-01T06:53:56;16.60;99.90
22319;DHT22;11327;52.334;9.506;2023-08-01T06:57:16;16.70;99.90
22319;DHT22;11327;52.334;9.506;2023-08-01T07:00:37;16.70;99.90
22319;DHT22;11327;52.334;9.506;2023-08-01T07:03:58;16.70;99.90
22319;DHT22;11327;52.334;9.506;2023-08-01T07:07:18;16.80;99.90
22319;DHT22;11327;52.334;9.506;2023-08-01T07:10:39;16.80;99.90
22319;DHT22;11327;52.334;9.506;2023-08-01T07:14:00;16.80;99.90
22319;DHT22;11327;52.334;9.506;2023-08-01T07:17:21;16.90;99.90
22319;DHT22;11327;52.334;9.506;2023-08-01T07:20:41;16.90;99.90
22319;DHT22;11327;52.334;9.506;2023-08-01T07:24:02;16.90;99.90
22319;DHT22;11327;52.334;9.506;2023-08-01T07:27:23;16.90;99.90
22319;DHT22;11327;52.334;9.506;2023-08-01T07:30:44;17.00;99.90
22319;DHT22;11327;52.334;9.506;2023-08-01T07:34:04;17.00;99.90
22319;DHT22;11327;52.334;9.506;2023-08-01T07:37:25;17.00;99.90
22319;DHT22;11327;52.334;9.506;2023-08-01T07:40:48;17.00;99.90
22319;DHT22;11327;52.334;9.506;2023-08-01T07:44:09;17.00;99.90
22319;DHT22;11327;52.334;9.506;2023-08-01T07:47:30;17.10;99.90
22319;DHT22;11327;52.334;9.506;2023-08-01T07:50:50;17.10;99.90
22319;DHT22;11327;52.334;9.506;2023-08-01T07:54:11;17.10;99.90
22319;DHT22;11327;52.334;9.506;2023-08-01T07:57:32;17.10;99.90
22319;DHT22;11327;52.334;9.506;2023-08-01T08:00:53;17.10;99.90
22319;DHT22;11327;52.334;9.506;2023-08-01T08:04:13;17.20;99.90
22319;DHT22;11327;52.334;9.506;2023-08-01T08:07:35;17.20;99.90
22319;DHT22;11327;52.334;9.506;2023-08-01T08:10:56;17.20;99.90
22319;DHT22;11327;52.334;9.506;2023-08-01T08:14:17;17.20;99.90
22319;DHT22;11327;52.334;9.506;2023-08-01T08:17:38;17.30;99.90
22319;DHT22;11327;52.334;9.506;2023-08-01T08:20:58;17.10;99.90
22319;DHT22;11327;52.334;9.506;2023-08-01T08:24:19;17.10;99.90
22319;DHT22;11327;52.334;9.506;2023-08-01T08:27:40;17.10;99.90
22319;DHT22;11327;52.334;9.506;2023-08-01T08:31:01;17.10;99.90
22319;DHT22;11327;52.334;9.506;2023-08-01T08:34:22;17.20;99.90
22319;DHT22;11327;52.334;9.506;2023-08-01T08:37:43;17.20;99.90
22319;DHT22;11327;52.334;9.506;2023-08-01T08:41:14;17.20;99.90
22319;DHT22;11327;52.334;9.506;2023-08-01T08:44:42;17.30;99.90
22319;DHT22;11327;52.334;9.506;2023-08-01T08:48:07;17.30;99.90
22319;DHT22;11327;52.334;9.506;2023-08-01T08:51:28;17.40;99.90
22319;DHT22;11327;52.334;9.506;2023-08-01T08:54:49;17.80;99.90
22319;DHT22;11327;52.334;9.506;2023-08-01T08:58:10;17.90;99.90
22319;DHT22;11327;52.334;9.506;2023-08-01T09:01:31;18.10;99.90
22319;DHT22;11327;52.334;9.506;2023-08-01T09:04:52;18.20;99.90
22319;DHT22;11327;52.334;9.506;2023-08-01T09:08:18;18.40;99.90
22319;DHT22;11327;52.334;9.506;2023-08-01T09:11:50;18.50;99.90
22319;DHT22;11327;52.334;9.506;2023-08-01T09:15:12;18.30;99.90
22319;DHT22;11327;52.334;9.506;2023-08-01T09:18:34;18.40;99.90
22319;DHT22;11327;52.334;9.506;2023-08-01T09:21:54;18.60;99.90
22319;DHT22;11327;52.334;9.506;2023-08-01T09:25:15;18.80;99.90
22319;DHT22;11327;52.334;9.506;2023-08-01T09:28:36;18.90;99.90
22319;DHT22;11327;52.334;9.506;2023-08-01T09:31:57;19.10;99.90
22319;DHT22;11327;52.334;9.506;2023-08-01T09:35:17;19.10;99.90
22319;DHT22;11327;52.334;9.506;2023-08-01T09:38:38;19.30;99.90
22319;DHT22;11327;52.334;9.506;2023-08-01T09:42:01;19.20;99.90
22319;DHT22;11327;52.334;9.506;2023-08-01T09:45:21;19.10;99.90
22319;DHT22;11327;52.334;9.506;2023-08-01T09:48:42;18.90;99.90
22319;DHT22;11327;52.334;9.506;2023-08-01T09:52:04;18.90;99.90
22319;DHT22;11327;52.334;9.506;2023-08-01T09:55:32;19.20;99.90
22319;DHT22;11327;52.334;9.506;2023-08-01T09:58:54;19.20;99.90
22319;DHT22;11327;52.334;9.506;2023-08-01T10:02:17;19.20;99.90
22319;DHT22;11327;52.334;9.506;2023-08-01T10:05:40;19.40;99.90
22319;DHT22;11327;52.334;9.506;2023-08-01T10:09:02;19.40;99.90
22319;DHT22;11327;52.334;9.506;2023-08-01T10:12:27;19.30;99.90
22319;DHT22;11327;52.334;9.506;2023-08-01T10:15:49;19.30;99.90
22319;DHT22;11327;52.334;9.506;2023-08-01T10:19:12;19.20;99.90
22319;DHT22;11327;52.334;9.506;2023-08-01T10:22:34;19.10;99.90
22319;DHT22;11327;52.334;9.506;2023-08-01T10:25:55;19.00;99.90
22319;DHT22;11327;52.334;9.506;2023-08-01T10:29:16;19.00;99.90
22319;DHT22;11327;52.334;9.506;2023-08-01T10:32:39;19.00;99.90
22319;DHT22;11327;52.334;9.506;2023-08-01T10:35:59;19.30;99.90
22319;DHT22;11327;52.334;9.506;2023-08-01T10:39:22;19.60;99.90
22319;DHT22;11327;52.334;9.506;2023-08-01T10:42:44;19.70;99.90
22319;DHT22;11327;52.334;9.506;2023-08-01T10:46:05;19.60;99.90
22319;DHT22;11327;52.334;9.506;2023-08-01T10:49:37;19.60;99.90
22319;DHT22;11327;52.334;9.506;2023-08-01T10:53:03;19.80;99.90
22319;DHT22;11327;52.334;9.506;2023-08-01T10:56:25;20.00;99.90
22319;DHT22;11327;52.334;9.506;2023-08-01T10:59:47;20.00;99.90
22319;DHT22;11327;52.334;9.506;2023-08-01T11:03:08;20.00;99.90
22319;DHT22;11327;52.334;9.506;2023-08-01T11:06:29;20.10;99.90
22319;DHT22;11327;52.334;9.506;2023-08-01T11:09:49;20.20;99.90
22319;DHT22;11327;52.334;9.506;2023-08-01T11:13:12;20.30;99.90
22319;DHT22;11327;52.334;9.506;2023-08-01T11:16:33;20.20;99.90
22319;DHT22;11327;52.334;9.506;2023-08-01T11:20:11;20.00;99.90
22319;DHT22;11327;52.334;9.506;2023-08-01T11:23:32;19.80;99.90
22319;DHT22;11327;52.334;9.506;2023-08-01T11:26:54;19.60;99.90
22319;DHT22;11327;52.334;9.506;2023-08-01T11:30:14;19.10;99.90
22319;DHT22;11327;52.334;9.506;2023-08-01T11:33:35;18.70;99.90
22319;DHT22;11327;52.334;9.506;2023-08-01T11:36:56;18.50;99.90
22319;DHT22;11327;52.334;9.506;2023-08-01T11:40:17;18.30;99.90
22319;DHT22;11327;52.334;9.506;2023-08-01T11:43:40;18.30;99.90
22319;DHT22;11327;52.334;9.506;2023-08-01T11:47:01;18.20;99.90
22319;DHT22;11327;52.334;9.506;2023-08-01T11:50:25;18.40;99.90
22319;DHT22;11327;52.334;9.506;2023-08-01T11:53:46;18.50;99.90
22319;DHT22;11327;52.334;9.506;2023-08-01T11:57:08;18.60;99.90
22319;DHT22;11327;52.334;9.506;2023-08-01T12:00:29;18.90;99.90
22319;DHT22;11327;52.334;9.506;2023-08-01T12:03:54;19.10;99.90
22319;DHT22;11327;52.334;9.506;2023-08-01T12:07:15;19.30;99.90
22319;DHT22;11327;52.334;9.506;2023-08-01T12:10:38;19.50;99.90
22319;DHT22;11327;52.334;9.506;2023-08-01T12:14:13;19.40;99.90
22319;DHT22;11327;52.334;9.506;2023-08-01T12:17:34;19.20;99.90
22319;DHT22;11327;52.334;9.506;2023-08-01T12:20:55;19.00;99.90
22319;DHT22;11327;52.334;9.506;2023-08-01T12:24:16;18.80;99.90
22319;DHT22;11327;52.334;9.506;2023-08-01T12:27:36;18.80;99.90
22319;DHT22;11327;52.334;9.506;2023-08-01T12:30:57;18.80;99.90
22319;DHT22;11327;52.334;9.506;2023-08-01T12:34:19;18.90;99.90
22319;DHT22;11327;52.334;9.506;2023-08-01T12:37:39;18.90;99.90
22319;DHT22;11327;52.334;9.506;2023-08-01T12:41:01;19.00;99.90
22319;DHT22;11327;52.334;9.506;2023-08-01T12:44:22;19.30;99.90
22319;DHT22;11327;52.334;9.506;2023-08-01T12:47:42;19.50;99.90
22319;DHT22;11327;52.334;9.506;2023-08-01T12:51:03;19.70;99.90
22319;DHT22;11327;52.334;9.506;2023-08-01T12:54:24;19.90;99.90
22319;DHT22;11327;52.334;9.506;2023-08-01T12:57:44;19.80;99.90
22319;DHT22;11327;52.334;9.506;2023-08-01T13:01:06;19.90;99.90
22319;DHT22;11327;52.334;9.506;2023-08-01T13:04:27;19.80;99.90
22319;DHT22;11327;52.334;9.506;2023-08-01T13:07:47;19.70;99.90
22319;DHT22;11327;52.334;9.506;2023-08-01T13:11:11;19.50;99.90
22319;DHT22;11327;52.334;9.506;2023-08-01T13:14:33;19.40;99.90
22319;DHT22;11327;52.334;9.506;2023-08-01T13:17:53;19.20;99.90
22319;DHT22;11327;52.334;9.506;2023-08-01T13:21:14;19.00;99.90
22319;DHT22;11327;52.334;9.506;2023-08-01T13:24:35;18.90;99.90
22319;DHT22;11327;52.334;9.506;2023-08-01T13:27:58;18.70;99.90
22319;DHT22;11327;52.334;9.506;2023-08-01T13:31:18;18.50;99.90
22319;DHT22;11327;52.334;9.506;2023-08-01T13:34:39;18.40;99.90
22319;DHT22;11327;52.334;9.506;2023-08-01T13:38:00;18.40;99.90
22319;DHT22;11327;52.334;9.506;2023-08-01T13:41:21;18.50;99.90
22319;DHT22;11327;52.334;9.506;2023-08-01T13:44:41;18.60;99.90
22319;DHT22;11327;52.334;9.506;2023-08-01T13:48:02;18.80;99.90
22319;DHT22;11327;52.334;9.506;2023-08-01T13:51:23;19.00;99.90
22319;DHT22;11327;52.334;9.506;2023-08-01T13:54:44;19.20;99.90
22319;DHT22;11327;52.334;9.506;2023-08-01T13:58:04;19.40;99.90
22319;DHT22;11327;52.334;9.506;2023-08-01T14:01:25;19.70;99.90
22319;DHT22;11327;52.334;9.506;2023-08-01T14:04:46;19.80;99.90
22319;DHT22;11327;52.334;9.506;2023-08-01T14:08:06;19.90;99.90
22319;DHT22;11327;52.334;9.506;2023-08-01T14:11:27;19.80;99.90
22319;DHT22;11327;52.334;9.506;2023-08-01T14:14:48;19.50;99.90
22319;DHT22;11327;52.334;9.506;2023-08-01T14:18:08;19.20;99.90
22319;DHT22;11327;52.334;9.506;2023-08-01T14:21:29;19.20;99.90
22319;DHT22;11327;52.334;9.506;2023-08-01T14:24:50;19.30;99.90
22319;DHT22;11327;52.334;9.506;2023-08-01T14:28:11;19.20;99.90
22319;DHT22;11327;52.334;9.506;2023-08-01T14:31:32;19.10;99.90
22319;DHT22;11327;52.334;9.506;2023-08-01T14:34:52;19.30;99.90
22319;DHT22;11327;52.334;9.506;2023-08-01T14:38:13;19.40;99.90
22319;DHT22;11327;52.334;9.506;2023-08-01T14:41:34;19.70;99.90
22319;DHT22;11327;52.334;9.506;2023-08-01T14:44:55;19.90;99.90
22319;DHT22;11327;52.334;9.506;2023-08-01T14:48:17;20.10;99.90
22319;DHT22;11327;52.334;9.506;2023-08-01T14:51:39;20.20;99.90
22319;DHT22;11327;52.334;9.506;2023-08-01T14:55:00;20.30;99.90
22319;DHT22;11327;52.334;9.506;2023-08-01T14:58:20;20.30;99.90
22319;DHT22;11327;52.334;9.506;2023-08-01T15:01:41;20.40;99.90
22319;DHT22;11327;52.334;9.506;2023-08-01T15:05:02;20.40;99.90
22319;DHT22;11327;52.334;9.506;2023-08-01T15:08:23;20.50;99.90
22319;DHT22;11327;52.334;9.506;2023-08-01T15:11:43;20.60;99.90
22319;DHT22;11327;52.334;9.506;2023-08-01T15:15:05;20.70;99.90
22319;DHT22;11327;52.334;9.506;2023-08-01T15:18:27;20.90;99.90
22319;DHT22;11327;52.334;9.506;2023-08-01T15:21:48;20.60;99.90
22319;DHT22;11327;52.334;9.506;2023-08-01T15:25:09;20.60;99.90
22319;DHT22;11327;52.334;9.506;2023-08-01T15:28:29;20.60;99.90
22319;DHT22;11327;52.334;9.506;2023-08-01T15:31:50;20.70;99.90
22319;DHT22;11327;52.334;9.506;2023-08-01T15:35:11;20.80;99.90
22319;DHT22;11327;52.334;9.506;2023-08-01T15:38:35;20.80;99.90
22319;DHT22;11327;52.334;9.506;2023-08-01T15:41:56;20.70;99.90
22319;DHT22;11327;52.334;9.506;2023-08-01T15:45:16;20.60;99.90
22319;DHT22;11327;52.334;9.506;2023-08-01T15:48:37;20.60;99.90
22319;DHT22;11327;52.334;9.506;2023-08-01T15:51:58;20.70;99.90
22319;DHT22;11327;52.334;9.506;2023-08-01T15:55:19;20.80;99.90
22319;DHT22;11327;52.334;9.506;2023-08-01T15:58:40;20.80;99.90
22319;DHT22;11327;52.334;9.506;2023-08-01T16:02:00;20.90;99.90
22319;DHT22;11327;52.334;9.506;2023-08-01T16:05:21;21.00;99.90
22319;DHT22;11327;52.334;9.506;2023-08-01T16:08:42;21.00;99.90
22319;DHT22;11327;52.334;9.506;2023-08-01T16:12:03;21.10;99.90
22319;DHT22;11327;52.334;9.506;2023-08-01T16:15:24;21.10;99.90
22319;DHT22;11327;52.334;9.506;2023-08-01T16:18:44;21.10;99.90
22319;DHT22;11327;52.334;9.506;2023-08-01T16:22:07;21.30;99.90
22319;DHT22;11327;52.334;9.506;2023-08-01T16:25:28;21.30;99.90
22319;DHT22;11327;52.334;9.506;2023-08-01T16:28:48;21.20;99.90
22319;DHT22;11327;52.334;9.506;2023-08-01T16:32:09;21.10;99.90
22319;DHT22;11327;52.334;9.506;2023-08-01T16:35:32;20.90;99.90
22319;DHT22;11327;52.334;9.506;2023-08-01T16:38:53;20.60;99.90
22319;DHT22;11327;52.334;9.506;2023-08-01T16:42:14;20.30;99.90
22319;DHT22;11327;52.334;9.506;2023-08-01T16:45:34;20.10;99.90
22319;DHT22;11327;52.334;9.506;2023-08-01T16:48:55;20.00;99.90
22319;DHT22;11327;52.334;9.506;2023-08-01T16:52:16;20.10;99.90
22319;DHT22;11327;52.334;9.506;2023-08-01T16:55:37;20.30;99.90
22319;DHT22;11327;52.334;9.506;2023-08-01T16:58:58;20.20;99.90
22319;DHT22;11327;52.334;9.506;2023-08-01T17:02:19;20.20;99.90
22319;DHT22;11327;52.334;9.506;2023-08-01T17:05:40;20.20;99.90
22319;DHT22;11327;52.334;9.506;2023-08-01T17:09:00;20.00;99.90
22319;DHT22;11327;52.334;9.506;2023-08-01T17:12:21;19.80;99.90
22319;DHT22;11327;52.334;9.506;2023-08-01T17:15:42;19.80;99.90
22319;DHT22;11327;52.334;9.506;2023-08-01T17:19:03;19.60;99.90
22319;DHT22;11327;52.334;9.506;2023-08-01T17:22:24;19.40;99.90
22319;DHT22;11327;52.334;9.506;2023-08-01T17:25:46;19.40;99.90
22319;DHT22;11327;52.334;9.506;2023-08-01T17:29:07;19.40;99.90
22319;DHT22;11327;52.334;9.506;2023-08-01T17:32:30;19.40;99.90
22319;DHT22;11327;52.334;9.506;2023-08-01T17:36:10;19.40;99.90
22319;DHT22;11327;52.334;9.506;2023-08-01T17:39:31;19.30;99.90
22319;DHT22;11327;52.334;9.506;2023-08-01T17:42:53;19.20;99.90
22319;DHT22;11327;52.334;9.506;2023-08-01T17:46:15;19.20;99.90
22319;DHT22;11327;52.334;9.506;2023-08-01T17:49:36;19.10;99.90
22319;DHT22;11327;52.334;9.506;2023-08-01T17:52:57;19.00;99.90
22319;DHT22;11327;52.334;9.506;2023-08-01T17:56:18;19.00;99.90
22319;DHT22;11327;52.334;9.506;2023-08-01T17:59:40;18.90;99.90
22319;DHT22;11327;52.334;9.506;2023-08-01T18:03:00;18.80;99.90
22319;DHT22;11327;52.334;9.506;2023-08-01T18:06:21;18.60;99.90
22319;DHT22;11327;52.334;9.506;2023-08-01T18:09:42;18.50;99.90
22319;DHT22;11327;52.334;9.506;2023-08-01T18:13:03;18.40;99.90
22319;DHT22;11327;52.334;9.506;2023-08-01T18:16:25;18.30;99.90
22319;DHT22;11327;52.334;9.506;2023-08-01T18:19:46;18.20;99.90
22319;DHT22;11327;52.334;9.506;2023-08-01T18:23:06;18.20;99.90
22319;DHT22;11327;52.334;9.506;2023-08-01T18:26:27;18.20;99.90
22319;DHT22;11327;52.334;9.506;2023-08-01T18:29:50;18.20;99.90
22319;DHT22;11327;52.334;9.506;2023-08-01T18:33:10;18.10;99.90
22319;DHT22;11327;52.334;9.506;2023-08-01T18:36:31;18.10;99.90
22319;DHT22;11327;52.334;9.506;2023-08-01T18:39:54;18.00;99.90
22319;DHT22;11327;52.334;9.506;2023-08-01T18:43:15;18.00;99.90
22319;DHT22;11327;52.334;9.506;2023-08-01T18:46:35;17.80;99.90
22319;DHT22;11327;52.334;9.506;2023-08-01T18:49:56;17.90;99.90
22319;DHT22;11327;52.334;9.506;2023-08-01T18:53:18;17.90;99.90
22319;DHT22;11327;52.334;9.506;2023-08-01T18:56:40;17.90;99.90
22319;DHT22;11327;52.334;9.506;2023-08-01T19:00:01;17.90;99.90
22319;DHT22;11327;52.334;9.506;2023-08-01T19:03:21;17.90;99.90
22319;DHT22;11327;52.334;9.506;2023-08-01T19:06:42;17.80;99.90
22319;DHT22;11327;52.334;9.506;2023-08-01T19:10:04;17.80;99.90
22319;DHT22;11327;52.334;9.506;2023-08-01T19:13:24;17.80;99.90
22319;DHT22;11327;52.334;9.506;2023-08-01T19:16:45;17.80;99.90
22319;DHT22;11327;52.334;9.506;2023-08-01T19:20:06;17.80;99.90
22319;DHT22;11327;52.334;9.506;2023-08-01T19:23:28;17.60;99.90
22319;DHT22;11327;52.334;9.506;2023-08-01T19:26:49;17.60;99.90
22319;DHT22;11327;52.334;9.506;2023-08-01T19:30:10;17.50;99.90
22319;DHT22;11327;52.334;9.506;2023-08-01T19:33:31;17.40;99.90
22319;DHT22;11327;52.334;9.506;2023-08-01T19:36:52;17.40;99.90
22319;DHT22;11327;52.334;9.506;2023-08-01T19:40:13;17.40;99.90
22319;DHT22;11327;52.334;9.506;2023-08-01T19:43:34;17.40;99.90
22319;DHT22;11327;52.334;9.506;2023-08-01T19:46:56;17.30;99.90
22319;DHT22;11327;52.334;9.506;2023-08-01T19:50:17;17.30;99.90
22319;DHT22;11327;52.334;9.506;2023-08-01T19:53:37;17.20;99.90
22319;DHT22;11327;52.334;9.506;2023-08-01T19:56:58;17.30;99.90
22319;DHT22;11327;52.334;9.506;2023-08-01T20:00:19;17.30;99.90
22319;DHT22;11327;52.334;9.506;2023-08-01T20:03:40;17.20;99.90
22319;DHT22;11327;52.334;9.506;2023-08-01T20:07:01;17.20;99.90
22319;DHT22;11327;52.334;9.506;2023-08-01T20:10:23;17.10;99.90
22319;DHT22;11327;52.334;9.506;2023-08-01T20:13:44;17.10;99.90
22319;DHT22;11327;52.334;9.506;2023-08-01T20:17:05;17.10;99.90
22319;DHT22;11327;52.334;9.506;2023-08-01T20:20:26;17.10;99.90
22319;DHT22;11327;52.334;9.506;2023-08-01T20:23:46;17.10;99.90
22319;DHT22;11327;52.334;9.506;2023-08-01T20:27:07;17.00;99.90
22319;DHT22;11327;52.334;9.506;2023-08-01T20:30:28;17.00;99.90
22319;DHT22;11327;52.334;9.506;2023-08-01T20:33:48;17.00;99.90
22319;DHT22;11327;52.334;9.506;2023-08-01T20:37:09;17.00;99.90
22319;DHT22;11327;52.334;9.506;2023-08-01T20:40:32;17.00;99.90
22319;DHT22;11327;52.334;9.506;2023-08-01T20:43:53;17.00;99.90
22319;DHT22;11327;52.334;9.506;2023-08-01T20:47:14;17.00;99.90
22319;DHT22;11327;52.334;9.506;2023-08-01T20:50:35;16.90;99.90
22319;DHT22;11327;52.334;9.506;2023-08-01T20:53:55;16.90;99.90
22319;DHT22;11327;52.334;9.506;2023-08-01T20:57:16;16.80;99.90
22319;DHT22;11327;52.334;9.506;2023-08-01T21:00:37;16.80;99.90
22319;DHT22;11327;52.334;9.506;2023-08-01T21:03:58;16.80;99.90
22319;DHT22;11327;52.334;9.506;2023-08-01T21:07:19;16.70;99.90
22319;DHT22;11327;52.334;9.506;2023-08-01T21:10:40;16.70;99.90